createdAt,value
2022-08-28T00:00:29.468Z,20.31
2022-08-28T00:02:57.454Z,20.25
2022-08-28T00:05:27.901Z,20.23
2022-08-28T00:07:54.979Z,20.15
2022-08-28T00:10:24.110Z,20.12
2022-08-28T00:12:53.572Z,20.15
2022-08-28T00:15:24.493Z,20.15
2022-08-28T00:17:51.285Z,20.12
2022-08-28T00:20:19.980Z,20.09
2022-08-28T00:22:47.622Z,20.08
2022-08-28T00:25:16.497Z,20.08
2022-08-28T00:27:52.590Z,20.08
2022-08-28T00:30:25.134Z,20.13
2022-08-28T00:32:54.563Z,20.10
2022-08-28T00:35:23.753Z,20.08
2022-08-28T00:37:51.916Z,20.10
2022-08-28T00:40:28.642Z,20.13
2022-08-28T00:43:04.436Z,20.11
2022-08-28T00:45:35.978Z,20.11
2022-08-28T00:48:04.339Z,20.10
2022-08-28T00:50:52.645Z,20.11
2022-08-28T00:53:20.541Z,20.09
2022-08-28T00:55:50.410Z,20.07
2022-08-28T00:58:18.108Z,20.11
2022-08-28T01:00:44.907Z,20.11
2022-08-28T01:03:11.768Z,20.13
2022-08-28T01:05:40.282Z,20.15
2022-08-28T01:08:07.144Z,20.19
2022-08-28T01:10:34.956Z,20.22
2022-08-28T01:13:02.968Z,20.20
2022-08-28T01:15:35.489Z,20.22
2022-08-28T01:18:08.627Z,20.18
2022-08-28T01:20:38.426Z,20.16
2022-08-28T01:23:22.457Z,20.23
2022-08-28T01:25:49.419Z,20.17
2022-08-28T01:28:16.765Z,20.21
2022-08-28T01:30:46.411Z,20.21
2022-08-28T01:33:14.858Z,20.21
2022-08-28T01:35:45.516Z,20.23
2022-08-28T01:38:12.577Z,20.20
2022-08-28T01:40:47.181Z,20.20
2022-08-28T01:43:21.137Z,20.23
2022-08-28T01:45:54.269Z,20.27
2022-08-28T01:48:23.653Z,20.27
2022-08-28T01:50:50.864Z,20.26
2022-08-28T01:53:20.077Z,20.32
2022-08-28T01:55:53.507Z,20.36
2022-08-28T01:58:21.692Z,20.36
2022-08-28T02:00:48.681Z,20.39
2022-08-28T02:03:16.256Z,20.39
2022-08-28T02:05:43.712Z,20.40
2022-08-28T02:08:10.778Z,20.41
2022-08-28T02:10:39.679Z,20.44
2022-08-28T02:13:07.692Z,20.42
2022-08-28T02:15:36.146Z,20.44
2022-08-28T02:18:04.130Z,20.42
2022-08-28T02:20:31.197Z,20.41
2022-08-28T02:22:58.774Z,20.39
2022-08-28T02:25:27.215Z,20.37
2022-08-28T02:27:54.668Z,20.36
2022-08-28T02:30:21.626Z,20.34
2022-08-28T02:32:48.409Z,20.34
2022-08-28T02:35:17.262Z,20.37
2022-08-28T02:37:46.001Z,20.38
2022-08-28T02:40:17.252Z,20.38
2022-08-28T02:42:44.407Z,20.36
2022-08-28T02:45:13.835Z,20.41
2022-08-28T02:47:43.723Z,20.43
2022-08-28T02:50:13.455Z,20.45
2022-08-28T02:52:41.400Z,20.49
2022-08-28T02:55:09.848Z,20.52
2022-08-28T02:57:37.701Z,20.55
2022-08-28T03:00:06.855Z,20.58
2022-08-28T03:02:34.202Z,20.61
2022-08-28T03:05:01.078Z,20.70
2022-08-28T03:07:29.391Z,20.73
2022-08-28T03:09:56.543Z,20.77
2022-08-28T03:12:26.495Z,20.81
2022-08-28T03:14:53.823Z,20.82
2022-08-28T03:17:22.122Z,20.86
2022-08-28T03:19:50.264Z,20.87
2022-08-28T03:22:38.487Z,20.88
2022-08-28T03:25:06.914Z,20.88
2022-08-28T03:27:34.171Z,20.88
2022-08-28T03:30:02.838Z,20.91
2022-08-28T03:32:31.773Z,20.94
2022-08-28T03:34:58.614Z,20.96
2022-08-28T03:37:25.759Z,20.97
2022-08-28T03:39:53.468Z,20.98
2022-08-28T03:42:20.359Z,21.02
2022-08-28T03:44:49.096Z,21.04
2022-08-28T03:47:16.765Z,21.05
2022-08-28T03:49:45.407Z,21.09
2022-08-28T03:52:12.719Z,21.09
2022-08-28T03:54:39.556Z,21.10
2022-08-28T03:57:07.608Z,21.12
2022-08-28T03:59:35.621Z,21.13
2022-08-28T04:02:02.577Z,21.13
2022-08-28T04:04:29.419Z,21.15
2022-08-28T04:06:56.193Z,21.14
2022-08-28T04:09:23.064Z,21.13
2022-08-28T04:11:49.860Z,21.12
2022-08-28T04:14:16.683Z,21.14
2022-08-28T04:16:43.781Z,21.12
2022-08-28T04:19:10.695Z,21.12
2022-08-28T04:21:37.549Z,21.12
2022-08-28T04:24:09.021Z,21.13
2022-08-28T04:26:36.861Z,21.15
2022-08-28T04:29:04.973Z,21.20
2022-08-28T04:31:32.966Z,21.25
2022-08-28T04:34:02.076Z,21.27
2022-08-28T04:36:29.407Z,21.28
2022-08-28T04:38:57.802Z,21.30
2022-08-28T04:41:24.571Z,21.31
2022-08-28T04:43:52.839Z,21.30
2022-08-28T04:46:20.570Z,21.32
2022-08-28T04:48:47.397Z,21.35
2022-08-28T04:51:17.913Z,21.37
2022-08-28T04:53:44.739Z,21.35
2022-08-28T04:56:14.062Z,21.35
2022-08-28T04:58:43.046Z,21.34
2022-08-28T05:01:13.799Z,21.39
2022-08-28T05:03:41.034Z,21.41
2022-08-28T05:06:09.520Z,21.45
2022-08-28T05:08:36.617Z,21.45
2022-08-28T05:11:22.074Z,21.61
2022-08-28T05:14:04.506Z,21.56
2022-08-28T05:16:32.502Z,21.61
2022-08-28T05:19:01.336Z,21.68
2022-08-28T05:21:28.451Z,21.67
2022-08-28T05:23:57.633Z,21.67
2022-08-28T05:26:26.833Z,21.70
2022-08-28T05:28:56.737Z,21.73
2022-08-28T05:31:25.133Z,21.77
2022-08-28T05:33:53.814Z,21.79
2022-08-28T05:36:23.302Z,21.84
2022-08-28T05:38:56.679Z,21.87
2022-08-28T05:41:27.559Z,21.87
2022-08-28T05:43:54.362Z,21.91
2022-08-28T05:46:22.409Z,21.94
2022-08-28T05:48:49.694Z,21.98
2022-08-28T05:51:20.280Z,22.03
2022-08-28T05:53:50.058Z,22.08
2022-08-28T05:56:26.918Z,22.17
2022-08-28T05:58:53.701Z,22.12
2022-08-28T06:01:29.098Z,22.19
2022-08-28T06:04:01.662Z,22.23
2022-08-28T06:06:31.541Z,22.22
2022-08-28T06:09:00.470Z,22.24
2022-08-28T06:11:30.927Z,22.24
2022-08-28T06:14:02.460Z,22.28
2022-08-28T06:16:32.726Z,22.27
2022-08-28T06:19:00.681Z,22.30
2022-08-28T06:21:28.600Z,22.35
2022-08-28T06:23:55.410Z,22.38
2022-08-28T06:26:23.096Z,22.39
2022-08-28T06:28:49.961Z,22.41
2022-08-28T06:31:24.249Z,22.44
2022-08-28T06:33:54.313Z,22.46
2022-08-28T06:36:21.880Z,22.46
2022-08-28T06:38:49.064Z,22.49
2022-08-28T06:41:16.203Z,22.49
2022-08-28T06:43:43.364Z,22.53
2022-08-28T06:46:10.246Z,22.53
2022-08-28T06:48:37.253Z,22.57
2022-08-28T06:51:07.474Z,22.65
2022-08-28T06:53:34.520Z,22.67
2022-08-28T06:56:08.732Z,22.78
2022-08-28T06:58:38.833Z,22.92
2022-08-28T07:01:11.241Z,23.04
2022-08-28T07:03:42.704Z,23.12
2022-08-28T07:06:14.103Z,23.24
2022-08-28T07:08:42.524Z,23.33
2022-08-28T07:11:25.954Z,23.49
2022-08-28T07:13:53.905Z,23.57
2022-08-28T07:16:23.059Z,23.69
2022-08-28T07:18:50.048Z,23.79
2022-08-28T07:21:16.927Z,23.86
2022-08-28T07:23:45.219Z,23.91
2022-08-28T07:26:20.948Z,23.98
2022-08-28T07:28:47.714Z,24.07
2022-08-28T07:31:18.060Z,24.26
2022-08-28T07:33:45.404Z,24.40
2022-08-28T07:36:25.578Z,24.54
2022-08-28T07:38:56.883Z,24.63
2022-08-28T07:41:27.063Z,24.76
2022-08-28T07:44:12.358Z,24.89
2022-08-28T07:46:40.667Z,25.01
2022-08-28T07:49:09.031Z,25.14
2022-08-28T07:51:37.038Z,25.28
2022-08-28T07:54:04.741Z,25.46
2022-08-28T07:56:32.243Z,25.63
2022-08-28T07:59:01.224Z,25.78
2022-08-28T08:01:30.926Z,25.96
2022-08-28T08:04:01.486Z,26.06
2022-08-28T08:06:34.279Z,26.18
2022-08-28T08:09:02.266Z,26.29
2022-08-28T08:11:32.629Z,26.34
2022-08-28T08:14:05.602Z,26.38
2022-08-28T08:16:39.315Z,26.47
2022-08-28T08:19:10.161Z,26.47
2022-08-28T08:21:38.091Z,26.56
2022-08-28T08:24:05.574Z,26.62
2022-08-28T08:26:33.248Z,26.74
2022-08-28T08:29:00.896Z,26.84
2022-08-28T08:31:33.900Z,26.95
2022-08-28T08:34:05.102Z,27.08
2022-08-28T08:36:34.682Z,27.16
2022-08-28T08:39:02.070Z,27.21
2022-08-28T08:41:57.718Z,27.29
2022-08-28T08:44:55.802Z,27.40
2022-08-28T08:47:27.031Z,27.25
2022-08-28T08:50:02.843Z,27.37
2022-08-28T08:52:33.457Z,27.31
2022-08-28T08:55:10.035Z,27.41
2022-08-28T08:57:39.114Z,27.33
2022-08-28T09:00:15.817Z,27.48
2022-08-28T09:03:19.545Z,27.64
2022-08-28T09:05:53.377Z,27.50
2022-08-28T09:08:40.106Z,27.66
2022-08-28T09:11:34.374Z,27.58
2022-08-28T09:14:06.956Z,27.36
2022-08-28T09:16:38.413Z,27.47
2022-08-28T09:19:06.338Z,27.65
2022-08-28T09:21:35.453Z,27.63
2022-08-28T09:24:10.898Z,27.72
2022-08-28T09:26:39.583Z,27.84
2022-08-28T09:29:15.986Z,27.98
2022-08-28T09:31:44.110Z,28.06
2022-08-28T09:34:28.549Z,28.28
2022-08-28T09:36:57.491Z,28.32
2022-08-28T09:39:35.912Z,28.45
2022-08-28T09:42:40.906Z,28.56
2022-08-28T09:45:18.410Z,28.56
2022-08-28T09:47:49.716Z,28.67
2022-08-28T09:50:19.177Z,28.92
2022-08-28T09:52:46.622Z,28.97
2022-08-28T09:55:22.108Z,29.11
2022-08-28T09:57:49.060Z,29.27
2022-08-28T10:00:16.642Z,29.36
2022-08-28T10:03:03.302Z,29.59
2022-08-28T10:05:41.742Z,29.76
2022-08-28T10:08:25.837Z,29.95
2022-08-28T10:10:58.756Z,30.12
2022-08-28T10:13:38.570Z,30.32
2022-08-28T10:16:28.920Z,30.50
2022-08-28T10:19:18.680Z,30.63
2022-08-28T10:21:48.266Z,31.08
2022-08-28T10:24:30.501Z,32.12
2022-08-28T10:27:12.733Z,33.19
2022-08-28T10:30:12.524Z,34.02
2022-08-28T10:33:02.252Z,34.54
2022-08-28T10:35:41.306Z,34.99
2022-08-28T10:38:41.925Z,35.22
2022-08-28T10:41:25.914Z,34.24
2022-08-28T10:43:54.720Z,33.77
2022-08-28T10:46:27.690Z,33.93
2022-08-28T10:49:03.196Z,33.98
2022-08-28T10:51:37.650Z,33.62
2022-08-28T10:54:18.891Z,33.19
2022-08-28T10:56:56.818Z,32.92
2022-08-28T10:59:25.769Z,32.83
2022-08-28T11:01:52.777Z,33.27
2022-08-28T11:04:25.688Z,33.71
2022-08-28T11:07:10.239Z,34.42
2022-08-28T11:09:46.054Z,34.98
2022-08-28T11:12:19.884Z,35.51
2022-08-28T11:14:51.045Z,35.83
2022-08-28T11:17:27.770Z,36.06
2022-08-28T11:20:09.797Z,35.52
2022-08-28T11:22:49.347Z,34.77
2022-08-28T11:25:32.470Z,34.17
2022-08-28T11:28:32.508Z,33.67
2022-08-28T11:31:05.151Z,32.85
2022-08-28T11:33:50.556Z,32.65
2022-08-28T11:36:20.059Z,32.17
2022-08-28T11:39:19.431Z,31.93
2022-08-28T11:42:10.787Z,31.54
2022-08-28T11:44:45.860Z,31.11
2022-08-28T11:47:36.959Z,31.00
2022-08-28T11:50:20.096Z,30.84
2022-08-28T11:52:49.557Z,30.60
2022-08-28T11:55:31.021Z,30.62
2022-08-28T12:00:33.611Z,30.41
2022-08-28T12:03:24.233Z,30.58
2022-08-28T12:05:55.562Z,30.63
2022-08-28T12:08:53.231Z,31.00
2022-08-28T12:11:44.953Z,31.13
2022-08-28T12:14:46.891Z,31.23
2022-08-28T12:17:17.900Z,31.43
2022-08-28T12:19:55.273Z,31.53
2022-08-28T12:22:44.620Z,31.62
2022-08-28T12:25:24.877Z,31.49
2022-08-28T12:27:53.216Z,31.24
2022-08-28T12:30:32.407Z,31.24
2022-08-28T12:33:32.021Z,30.97
2022-08-28T12:36:04.601Z,30.76
2022-08-28T12:38:33.562Z,30.68
2022-08-28T12:41:02.586Z,30.69
2022-08-28T12:43:45.669Z,30.81
2022-08-28T12:46:36.397Z,30.87
2022-08-28T12:49:25.302Z,30.74
2022-08-28T12:52:07.834Z,30.86
2022-08-28T12:54:35.359Z,30.76
2022-08-28T12:57:08.383Z,30.87
2022-08-28T12:59:50.226Z,30.95
2022-08-28T13:02:36.377Z,31.18
2022-08-28T13:05:12.087Z,31.60
2022-08-28T13:07:51.420Z,31.71
2022-08-28T13:10:24.553Z,31.83
2022-08-28T13:13:05.443Z,31.85
2022-08-28T13:15:51.632Z,32.00
2022-08-28T13:18:35.440Z,31.88
2022-08-28T13:21:17.461Z,31.94
2022-08-28T13:24:00.144Z,31.79
2022-08-28T13:26:33.201Z,31.70
2022-08-28T13:29:02.906Z,31.57
2022-08-28T13:31:35.903Z,31.54
2022-08-28T13:34:07.096Z,31.31
2022-08-28T13:36:44.680Z,31.61
2022-08-28T13:39:13.622Z,31.85
2022-08-28T13:41:41.699Z,32.63
2022-08-28T13:44:09.190Z,33.15
2022-08-28T13:46:36.156Z,33.47
2022-08-28T13:49:02.958Z,33.59
2022-08-28T13:51:29.833Z,33.64
2022-08-28T13:53:58.086Z,33.49
2022-08-28T13:56:27.644Z,33.28
2022-08-28T13:58:57.847Z,33.06
2022-08-28T14:01:48.680Z,32.76
2022-08-28T14:04:15.866Z,32.40
2022-08-28T14:06:44.131Z,32.02
2022-08-28T14:09:17.545Z,31.78
2022-08-28T14:11:49.741Z,31.62
2022-08-28T14:14:17.142Z,31.25
2022-08-28T14:16:45.659Z,30.95
2022-08-28T14:19:12.883Z,30.72
2022-08-28T14:21:41.570Z,30.69
2022-08-28T14:24:09.224Z,30.63
2022-08-28T14:26:36.392Z,30.55
2022-08-28T14:29:06.638Z,30.42
2022-08-28T14:31:36.047Z,30.28
2022-08-28T14:34:05.563Z,30.13
2022-08-28T14:36:33.318Z,29.98
2022-08-28T14:39:06.198Z,29.92
2022-08-28T14:41:34.556Z,29.78
2022-08-28T14:44:02.104Z,29.68
2022-08-28T14:46:34.195Z,29.62
2022-08-28T14:49:03.916Z,29.48
2022-08-28T14:51:33.394Z,29.39
2022-08-28T14:54:01.713Z,29.30
2022-08-28T14:56:31.556Z,29.22
2022-08-28T14:59:00.301Z,29.12
2022-08-28T15:01:40.469Z,29.08
2022-08-28T15:04:11.259Z,28.96
2022-08-28T15:06:38.462Z,28.85
2022-08-28T15:09:05.549Z,28.74
2022-08-28T15:11:32.432Z,28.67
2022-08-28T15:13:59.217Z,28.60
2022-08-28T15:16:31.144Z,28.59
2022-08-28T15:18:59.401Z,28.46
2022-08-28T15:21:35.439Z,28.44
2022-08-28T15:24:04.031Z,28.38
2022-08-28T15:26:32.103Z,28.32
2022-08-28T15:29:02.301Z,28.28
2022-08-28T15:31:31.236Z,28.26
2022-08-28T15:33:58.480Z,28.22
2022-08-28T15:36:25.313Z,28.17
2022-08-28T15:39:10.882Z,28.10
2022-08-28T15:41:38.558Z,28.03
2022-08-28T15:44:05.883Z,27.94
2022-08-28T15:46:34.511Z,27.89
2022-08-28T15:49:04.141Z,27.84
2022-08-28T15:51:35.884Z,27.78
2022-08-28T15:54:03.010Z,27.73
2022-08-28T15:56:29.837Z,27.67
2022-08-28T15:58:56.822Z,27.64
2022-08-28T16:01:23.918Z,27.61
2022-08-28T16:03:50.825Z,27.56
2022-08-28T16:06:20.835Z,27.52
2022-08-28T16:08:49.148Z,27.44
2022-08-28T16:11:20.829Z,27.41
2022-08-28T16:13:47.937Z,27.31
2022-08-28T16:16:14.808Z,27.27
2022-08-28T16:18:41.939Z,27.20
2022-08-28T16:21:09.223Z,27.13
2022-08-28T16:23:37.217Z,27.09
2022-08-28T16:26:05.863Z,27.03
2022-08-28T16:28:33.363Z,26.97
2022-08-28T16:31:11.684Z,26.97
2022-08-28T16:33:47.750Z,26.87
2022-08-28T16:36:15.759Z,26.80
2022-08-28T16:38:46.160Z,26.75
2022-08-28T16:41:19.642Z,26.74
2022-08-28T16:43:47.242Z,26.66
2022-08-28T16:46:20.092Z,26.63
2022-08-28T16:48:48.042Z,26.58
2022-08-28T16:51:16.260Z,26.57
2022-08-28T16:53:43.474Z,26.51
2022-08-28T16:56:12.229Z,26.46
2022-08-28T16:58:39.944Z,26.42
2022-08-28T17:01:08.353Z,26.39
2022-08-28T17:03:38.708Z,26.33
2022-08-28T17:06:18.504Z,26.36
2022-08-28T17:08:45.384Z,26.29
2022-08-28T17:11:12.970Z,26.28
2022-08-28T17:13:40.354Z,26.28
2022-08-28T17:16:08.178Z,26.26
2022-08-28T17:18:35.376Z,26.23
2022-08-28T17:21:20.849Z,26.22
2022-08-28T17:23:47.903Z,26.17
2022-08-28T17:26:15.417Z,26.16
2022-08-28T17:28:42.988Z,26.15
2022-08-28T17:31:11.291Z,26.15
2022-08-28T17:33:40.567Z,26.13
2022-08-28T17:36:08.857Z,26.08
2022-08-28T17:38:48.627Z,26.06
2022-08-28T17:41:15.453Z,26.02
2022-08-28T17:43:42.311Z,25.97
2022-08-28T17:46:09.189Z,25.96
2022-08-28T17:48:37.012Z,25.92
2022-08-28T17:51:04.830Z,25.88
2022-08-28T17:53:31.705Z,25.85
2022-08-28T17:55:59.114Z,25.84
2022-08-28T17:58:25.902Z,25.81
2022-08-28T18:00:52.998Z,25.80
2022-08-28T18:03:19.861Z,25.77
2022-08-28T18:05:46.668Z,25.74
2022-08-28T18:08:13.702Z,25.69
2022-08-28T18:10:40.779Z,25.68
2022-08-28T18:13:07.641Z,25.65
2022-08-28T18:15:34.786Z,25.63
2022-08-28T18:18:04.814Z,25.62
2022-08-28T18:20:31.675Z,25.59
2022-08-28T18:22:58.555Z,25.56
2022-08-28T18:25:50.730Z,25.50
2022-08-28T18:28:22.471Z,25.49
2022-08-28T18:30:51.002Z,25.43
2022-08-28T18:33:22.263Z,25.39
2022-08-28T18:35:50.508Z,25.34
2022-08-28T18:38:18.532Z,25.30
2022-08-28T18:40:45.586Z,25.28
2022-08-28T18:43:13.882Z,25.26
2022-08-28T18:45:40.850Z,25.22
2022-08-28T18:48:12.602Z,25.21
2022-08-28T18:50:43.221Z,25.18
2022-08-28T18:53:12.824Z,25.16
2022-08-28T18:55:39.711Z,25.13
2022-08-28T18:58:06.988Z,25.11
2022-08-28T19:00:34.405Z,25.08
2022-08-28T19:03:01.394Z,25.06
2022-08-28T19:05:28.375Z,25.04
2022-08-28T19:07:55.179Z,25.01
2022-08-28T19:10:33.447Z,24.99
2022-08-28T19:13:01.964Z,24.95
2022-08-28T19:15:29.703Z,24.90
2022-08-28T19:17:56.814Z,24.88
2022-08-28T19:20:23.931Z,24.85
2022-08-28T19:22:50.785Z,24.85
2022-08-28T19:25:27.883Z,24.84
2022-08-28T19:27:56.414Z,24.78
2022-08-28T19:30:28.066Z,24.71
2022-08-28T19:32:55.299Z,24.71
2022-08-28T19:35:24.574Z,24.68
2022-08-28T19:37:52.667Z,24.62
2022-08-28T19:40:20.678Z,24.58
2022-08-28T19:42:49.898Z,24.54
2022-08-28T19:45:17.269Z,24.50
2022-08-28T19:47:44.204Z,24.46
2022-08-28T19:50:12.886Z,24.46
2022-08-28T19:52:40.212Z,24.43
2022-08-28T19:55:08.003Z,24.39
2022-08-28T19:57:35.523Z,24.37
2022-08-28T20:00:04.178Z,24.34
2022-08-28T20:02:31.172Z,24.31
2022-08-28T20:04:58.043Z,24.26
2022-08-28T20:07:25.147Z,24.22
2022-08-28T20:09:52.434Z,24.19
2022-08-28T20:12:19.981Z,24.17
2022-08-28T20:14:47.065Z,24.13
2022-08-28T20:17:14.138Z,24.10
2022-08-28T20:19:41.584Z,24.05
2022-08-28T20:22:08.711Z,24.02
2022-08-28T20:24:35.547Z,23.99
2022-08-28T20:27:02.592Z,23.96
2022-08-28T20:29:29.691Z,23.95
2022-08-28T20:31:56.502Z,23.91
2022-08-28T20:34:24.570Z,23.89
2022-08-28T20:36:51.558Z,23.86
2022-08-28T20:39:20.073Z,23.84
2022-08-28T20:41:49.301Z,23.72
2022-08-28T20:44:18.550Z,23.72
2022-08-28T20:46:51.176Z,23.73
2022-08-28T20:49:22.197Z,23.66
2022-08-28T20:51:52.796Z,23.65
2022-08-28T20:54:21.539Z,23.65
2022-08-28T20:56:49.365Z,23.58
2022-08-28T20:59:16.845Z,23.53
2022-08-28T21:01:43.741Z,23.49
2022-08-28T21:04:10.849Z,23.51
2022-08-28T21:06:38.366Z,23.45
2022-08-28T21:09:05.230Z,23.39
2022-08-28T21:11:32.067Z,23.35
2022-08-28T21:13:58.934Z,23.30
2022-08-28T21:16:26.161Z,23.24
2022-08-28T21:19:14.560Z,23.18
2022-08-28T21:21:40.859Z,23.13
2022-08-28T21:24:10.754Z,23.05
2022-08-28T21:26:40.578Z,22.90
2022-08-28T21:29:09.957Z,22.79
2022-08-28T21:31:41.326Z,22.63
2022-08-28T21:34:09.512Z,22.52
2022-08-28T21:36:38.453Z,22.39
2022-08-28T21:39:06.168Z,22.32
2022-08-28T21:41:33.260Z,22.15
2022-08-28T21:44:00.341Z,22.05
2022-08-28T21:46:27.819Z,22.08
2022-08-28T21:48:56.288Z,22.04
2022-08-28T21:51:24.488Z,22.01
2022-08-28T21:53:51.542Z,21.97
2022-08-28T21:56:22.857Z,21.95
2022-08-28T21:58:51.108Z,21.88
2022-08-28T22:01:20.632Z,21.85
2022-08-28T22:03:47.541Z,21.79
2022-08-28T22:06:18.495Z,21.74
2022-08-28T22:08:47.169Z,21.69
2022-08-28T22:11:15.729Z,21.69
2022-08-28T22:13:48.537Z,21.66
2022-08-28T22:16:15.981Z,21.64
2022-08-28T22:18:42.917Z,21.62
2022-08-28T22:21:34.518Z,21.63
2022-08-28T22:24:01.443Z,21.49
2022-08-28T22:26:28.474Z,21.39
2022-08-28T22:28:56.134Z,21.26
2022-08-28T22:31:23.984Z,21.17
2022-08-28T22:33:52.257Z,21.09
2022-08-28T22:36:20.750Z,21.03
2022-08-28T22:38:53.202Z,20.95
2022-08-28T22:41:20.830Z,20.85
2022-08-28T22:43:49.858Z,20.77
2022-08-28T22:46:17.025Z,20.72
2022-08-28T22:48:43.904Z,20.69
2022-08-28T22:51:14.063Z,20.66
2022-08-28T22:53:43.338Z,20.62
2022-08-28T22:56:11.509Z,20.55
2022-08-28T22:58:39.617Z,20.51
2022-08-28T23:01:11.863Z,20.52
2022-08-28T23:03:39.653Z,20.47
2022-08-28T23:06:07.030Z,20.46
2022-08-28T23:08:34.324Z,20.40
2022-08-28T23:11:01.622Z,20.35
2022-08-28T23:13:30.036Z,20.30
2022-08-28T23:15:56.922Z,20.25
2022-08-28T23:18:24.797Z,20.21
2022-08-28T23:20:52.569Z,20.16
2022-08-28T23:23:19.618Z,20.12
2022-08-28T23:25:46.786Z,20.10
2022-08-28T23:28:13.629Z,20.12
2022-08-28T23:30:41.407Z,20.19
2022-08-28T23:33:19.749Z,20.24
2022-08-28T23:35:50.438Z,20.30
2022-08-28T23:38:17.274Z,20.35
2022-08-28T23:40:44.555Z,20.38
2022-08-28T23:43:11.995Z,20.38
2022-08-28T23:45:40.544Z,20.40
2022-08-28T23:48:08.275Z,20.39
2022-08-28T23:50:35.617Z,20.37
2022-08-28T23:53:04.034Z,20.35
2022-08-28T23:55:31.538Z,20.35
2022-08-28T23:58:00.592Z,20.34
